Time;durP1;ratioP1;P1;durP2;ratioP2;P2;SDS_P1;SDS_P2;PMS_P1;PMS_P2;Temp;Humidity;BMP_temperature;BMP_pressure;BME280_temperature;BME280_humidity;BME280_pressure;Samples;Min_cycle;Max_cycle;Signal;HPM_P1;HPM_P2
2023/06/08 00:02:11;;;;;;;16.08;9.23;;;13.40;99.90;;;;;;5087887;28;20032;-76
2023/06/08 00:04:40;;;;;;;14.98;8.88;;;13.40;99.90;;;;;;5117993;28;20036;-74
2023/06/08 00:07:10;;;;;;;14.35;9.30;;;13.40;99.90;;;;;;5083324;28;20016;-74
2023/06/08 00:09:37;;;;;;;14.45;9.05;;;13.40;99.90;;;;;;5081774;28;20089;-73
2023/06/08 00:12:03;;;;;;;14.82;9.07;;;13.40;99.90;;;;;;5073001;28;20384;-75
2023/06/08 00:14:29;;;;;;;15.70;10.38;;;13.30;99.90;;;;;;5070247;28;20028;-73
2023/06/08 00:16:55;;;;;;;15.20;9.57;;;13.10;99.90;;;;;;5083867;28;20378;-73
2023/06/08 00:19:22;;;;;;;15.60;9.82;;;13.00;99.90;;;;;;5077937;28;20036;-73
2023/06/08 00:21:48;;;;;;;15.82;8.98;;;12.90;99.90;;;;;;5079859;28;20036;-76
2023/06/08 00:24:18;;;;;;;15.85;10.20;;;12.80;99.90;;;;;;5117972;27;20035;-75
2023/06/08 00:26:43;;;;;;;18.20;11.68;;;12.80;99.90;;;;;;5083963;28;20412;-73
2023/06/08 00:29:09;;;;;;;20.50;13.23;;;12.70;99.90;;;;;;5086760;28;20023;-73
2023/06/08 00:31:36;;;;;;;22.10;14.73;;;12.80;99.90;;;;;;5087489;28;20114;-73
2023/06/08 00:34:02;;;;;;;25.40;15.10;;;12.80;99.90;;;;;;5077175;28;20036;-73
2023/06/08 00:36:27;;;;;;;25.10;15.73;;;12.70;99.90;;;;;;5088883;28;20032;-74
2023/06/08 00:38:53;;;;;;;28.90;15.23;;;12.70;99.90;;;;;;5072119;28;20584;-75
2023/06/08 00:41:19;;;;;;;24.10;15.65;;;12.60;99.90;;;;;;5077079;28;20051;-73
2023/06/08 00:43:45;;;;;;;28.85;17.75;;;12.70;99.90;;;;;;5087048;28;20128;-73
2023/06/08 00:46:13;;;;;;;24.55;15.98;;;12.60;99.90;;;;;;5079619;28;20055;-73
2023/06/08 00:48:40;;;;;;;24.80;15.60;;;12.60;99.90;;;;;;5080257;28;20039;-75
2023/06/08 00:51:07;;;;;;;24.70;14.88;;;12.50;99.90;;;;;;5079417;28;20425;-74
2023/06/08 00:53:35;;;;;;;25.65;15.02;;;12.50;99.90;;;;;;5082825;28;20036;-73
2023/06/08 00:56:01;;;;;;;21.00;14.13;;;12.50;99.90;;;;;;5074079;28;20043;-74
2023/06/08 00:58:28;;;;;;;23.58;13.88;;;12.50;99.90;;;;;;5085017;28;20105;-73
2023/06/08 01:00:59;;;;;;;21.58;13.68;;;12.60;99.90;;;;;;5078058;28;20032;-74
2023/06/08 01:03:33;;;;;;;21.92;13.85;;;12.50;99.90;;;;;;5083784;28;20034;-73
2023/06/08 01:06:00;;;;;;;21.13;12.90;;;12.50;99.90;;;;;;5088292;28;20076;-74
2023/06/08 01:09:04;;;;;;;20.95;13.27;;;12.40;99.90;;;;;;5084249;28;20020;-73
2023/06/08 01:11:45;;;;;;;20.88;12.20;;;12.30;99.90;;;;;;5069837;28;20488;-73
2023/06/08 01:14:28;;;;;;;17.38;11.20;;;12.20;99.90;;;;;;5076645;28;20267;-72
2023/06/08 01:16:57;;;;;;;18.17;11.02;;;12.00;99.90;;;;;;5081666;28;20032;-73
2023/06/08 01:19:39;;;;;;;18.45;11.80;;;12.00;99.90;;;;;;5082097;28;20046;-72
2023/06/08 01:22:46;;;;;;;21.38;11.35;;;11.90;99.90;;;;;;5082575;28;20625;-73
2023/06/08 01:25:14;;;;;;;19.10;11.82;;;11.80;99.90;;;;;;5108259;27;20058;-74
2023/06/08 01:27:39;;;;;;;19.60;11.95;;;11.80;99.90;;;;;;5081278;28;20082;-73
2023/06/08 01:30:06;;;;;;;20.00;12.02;;;11.90;99.90;;;;;;5073181;28;20032;-73
2023/06/08 01:32:33;;;;;;;19.83;12.05;;;11.70;99.90;;;;;;5080197;28;20039;-74
2023/06/08 01:34:59;;;;;;;21.77;11.95;;;11.60;99.90;;;;;;5080248;28;20488;-73
2023/06/08 01:37:36;;;;;;;18.63;11.57;;;11.60;99.90;;;;;;5077470;28;20490;-73
2023/06/08 01:40:10;;;;;;;23.45;11.75;;;11.70;99.90;;;;;;5086284;28;20127;-74
2023/06/08 01:42:37;;;;;;;17.38;11.13;;;11.60;99.90;;;;;;5071655;28;20032;-73
2023/06/08 01:45:11;;;;;;;19.25;11.70;;;11.60;99.90;;;;;;5079640;28;20033;-75
2023/06/08 01:47:54;;;;;;;22.58;11.88;;;11.70;99.90;;;;;;5086372;28;20408;-74
2023/06/08 01:50:21;;;;;;;18.55;11.77;;;11.80;99.90;;;;;;5069189;28;20393;-73
2023/06/08 01:52:47;;;;;;;18.67;10.73;;;11.80;99.90;;;;;;5070217;28;20032;-74
2023/06/08 01:55:17;;;;;;;19.63;11.27;;;11.90;99.90;;;;;;5091003;28;20273;-74
2023/06/08 01:57:43;;;;;;;18.43;11.50;;;11.90;99.90;;;;;;5078192;28;20036;-77
2023/06/08 02:00:10;;;;;;;19.75;11.77;;;11.80;99.90;;;;;;5086987;28;20278;-73
2023/06/08 02:02:37;;;;;;;18.58;11.35;;;11.70;99.90;;;;;;5088624;28;20040;-72
2023/06/08 02:05:06;;;;;;;19.65;11.35;;;11.50;99.90;;;;;;5076592;28;20096;-73
2023/06/08 02:07:31;;;;;;;22.67;11.50;;;11.40;99.90;;;;;;5086568;28;20032;-73
2023/06/08 02:09:57;;;;;;;18.58;11.40;;;11.40;99.90;;;;;;5069052;28;20082;-77
2023/06/08 02:12:22;;;;;;;22.23;10.88;;;11.40;99.90;;;;;;5095784;28;20464;-74
2023/06/08 02:14:48;;;;;;;20.95;12.25;;;11.40;99.90;;;;;;5083756;28;20032;-73
2023/06/08 02:17:26;;;;;;;18.10;10.85;;;11.50;99.90;;;;;;5088946;28;20232;-73
2023/06/08 02:19:55;;;;;;;17.83;11.52;;;11.50;99.90;;;;;;5086884;28;20465;-73
2023/06/08 02:22:21;;;;;;;20.20;11.68;;;11.50;99.90;;;;;;5080937;28;20036;-73
2023/06/08 02:24:48;;;;;;;17.45;11.32;;;11.50;99.90;;;;;;5081164;28;20033;-76
2023/06/08 02:27:14;;;;;;;18.02;11.57;;;11.50;99.90;;;;;;5103743;27;20546;-73
2023/06/08 02:29:40;;;;;;;17.15;10.73;;;11.40;99.90;;;;;;5082763;28;20024;-73
2023/06/08 02:32:06;;;;;;;17.52;11.75;;;11.30;99.90;;;;;;5084683;28;20032;-74
2023/06/08 02:34:32;;;;;;;17.85;10.85;;;11.40;99.90;;;;;;5082144;28;20030;-74
2023/06/08 02:36:58;;;;;;;19.45;11.35;;;11.40;99.90;;;;;;5082769;28;20035;-77
2023/06/08 02:39:23;;;;;;;19.30;11.40;;;11.40;99.90;;;;;;5086061;28;20081;-77
2023/06/08 02:41:49;;;;;;;17.02;10.88;;;11.30;99.90;;;;;;5080529;28;20413;-73
2023/06/08 02:44:15;;;;;;;19.90;11.70;;;11.40;99.90;;;;;;5102415;27;20024;-74
2023/06/08 02:46:40;;;;;;;17.17;10.98;;;11.40;99.90;;;;;;5083255;28;20149;-73
2023/06/08 02:49:06;;;;;;;17.45;11.07;;;11.40;99.90;;;;;;5079623;28;20551;-74
2023/06/08 02:51:32;;;;;;;18.75;11.40;;;11.40;99.90;;;;;;5078244;28;20660;-76
2023/06/08 02:53:57;;;;;;;16.92;10.75;;;11.40;99.90;;;;;;5071130;28;20021;-77
2023/06/08 02:56:25;;;;;;;17.35;11.18;;;11.30;99.90;;;;;;5076674;28;20032;-73
2023/06/08 02:58:51;;;;;;;20.48;10.77;;;11.30;99.90;;;;;;5081284;28;20028;-73
2023/06/08 03:01:17;;;;;;;17.45;10.65;;;11.30;99.90;;;;;;5075791;28;20476;-74
2023/06/08 03:03:45;;;;;;;17.92;10.93;;;11.30;99.90;;;;;;5084786;28;20039;-75
2023/06/08 03:06:12;;;;;;;19.13;11.85;;;11.40;99.90;;;;;;5072349;28;20078;-73
2023/06/08 03:08:41;;;;;;;18.10;10.90;;;11.40;99.90;;;;;;5070884;28;20025;-73
2023/06/08 03:11:07;;;;;;;16.85;10.85;;;11.40;99.90;;;;;;5073470;28;20035;-75
2023/06/08 03:13:33;;;;;;;19.35;11.48;;;11.40;99.90;;;;;;5079609;28;20024;-73
2023/06/08 03:15:59;;;;;;;20.52;12.20;;;11.40;99.90;;;;;;5073524;28;20032;-77
2023/06/08 03:18:25;;;;;;;17.65;11.18;;;11.30;99.90;;;;;;5073582;28;20642;-73
2023/06/08 03:20:51;;;;;;;23.17;11.70;;;11.20;99.90;;;;;;5085692;28;20060;-73
2023/06/08 03:23:21;;;;;;;18.88;11.27;;;11.20;99.90;;;;;;5087350;28;20035;-74
2023/06/08 03:25:48;;;;;;;18.02;11.30;;;11.20;99.90;;;;;;5085816;28;20033;-74
2023/06/08 03:28:15;;;;;;;17.58;11.40;;;11.20;99.90;;;;;;5079320;28;20032;-73
2023/06/08 03:30:41;;;;;;;19.25;10.98;;;11.20;99.90;;;;;;5080366;28;20099;-73
2023/06/08 03:33:07;;;;;;;18.40;10.98;;;11.20;99.90;;;;;;5079911;28;20433;-73
2023/06/08 03:35:32;;;;;;;16.33;10.93;;;11.10;99.90;;;;;;5081496;28;20445;-73
2023/06/08 03:37:58;;;;;;;17.38;10.68;;;11.10;99.90;;;;;;5078159;28;20458;-77
2023/06/08 03:40:24;;;;;;;17.63;10.55;;;11.10;99.90;;;;;;5083375;28;20036;-74
2023/06/08 03:42:50;;;;;;;17.98;10.90;;;11.20;99.90;;;;;;5084909;28;20067;-73
2023/06/08 03:45:17;;;;;;;17.08;9.95;;;11.20;99.90;;;;;;5086998;28;20413;-74
2023/06/08 03:47:43;;;;;;;17.25;10.07;;;11.30;99.90;;;;;;5084708;28;20071;-74
2023/06/08 03:50:11;;;;;;;16.83;10.48;;;11.20;99.90;;;;;;5068462;28;20067;-75
2023/06/08 03:52:38;;;;;;;18.40;10.32;;;11.10;99.90;;;;;;5090479;28;20061;-73
2023/06/08 03:55:08;;;;;;;16.60;9.95;;;11.10;99.90;;;;;;5084763;28;20044;-74
2023/06/08 03:57:34;;;;;;;15.07;9.75;;;11.00;99.90;;;;;;5068370;28;20362;-74
2023/06/08 03:59:59;;;;;;;20.50;10.98;;;11.10;99.90;;;;;;5078035;28;20119;-78
2023/06/08 04:02:25;;;;;;;15.52;9.77;;;11.20;99.90;;;;;;5083977;28;20496;-74
2023/06/08 04:04:53;;;;;;;19.25;10.32;;;11.20;99.90;;;;;;5088003;28;20035;-73
2023/06/08 04:07:20;;;;;;;15.07;9.50;;;11.30;99.90;;;;;;5079718;28;20155;-74
2023/06/08 04:09:46;;;;;;;19.77;10.27;;;11.30;99.90;;;;;;5069348;28;20101;-73
2023/06/08 04:12:12;;;;;;;16.00;9.65;;;11.40;99.90;;;;;;5069381;28;20032;-74
2023/06/08 04:14:38;;;;;;;18.15;10.27;;;11.40;99.90;;;;;;5084059;28;20028;-78
2023/06/08 04:17:04;;;;;;;16.88;10.23;;;11.50;99.90;;;;;;5069844;28;20029;-78
2023/06/08 04:19:29;;;;;;;16.27;9.90;;;11.50;99.90;;;;;;5075106;28;20052;-74
2023/06/08 04:21:56;;;;;;;17.02;9.27;;;11.50;99.90;;;;;;5085489;28;20032;-74
2023/06/08 04:24:28;;;;;;;15.52;9.65;;;11.60;99.90;;;;;;5087891;28;20031;-74
2023/06/08 04:26:55;;;;;;;15.98;10.43;;;11.60;99.90;;;;;;5090097;28;20042;-74
2023/06/08 04:29:21;;;;;;;17.85;10.27;;;11.60;99.90;;;;;;5074586;28;20028;-74
2023/06/08 04:31:46;;;;;;;15.98;10.23;;;11.70;99.90;;;;;;5086246;28;20104;-75
2023/06/08 04:34:12;;;;;;;17.67;10.32;;;11.80;99.90;;;;;;5088254;28;20028;-75
2023/06/08 04:36:42;;;;;;;14.60;9.60;;;11.80;99.90;;;;;;5089145;28;20129;-74
2023/06/08 04:39:08;;;;;;;18.35;9.88;;;11.90;99.90;;;;;;5082129;28;20040;-75
2023/06/08 04:41:35;;;;;;;14.55;9.43;;;12.00;99.90;;;;;;5071701;28;20040;-75
2023/06/08 04:44:02;;;;;;;18.48;9.93;;;12.10;99.90;;;;;;5080246;28;20035;-74
2023/06/08 04:46:33;;;;;;;13.93;9.48;;;12.10;99.90;;;;;;5086874;28;20149;-73
2023/06/08 04:48:59;;;;;;;17.40;10.50;;;12.20;99.90;;;;;;5081969;28;20028;-72
2023/06/08 04:51:29;;;;;;;16.38;10.35;;;12.20;99.90;;;;;;5081351;28;20561;-74
2023/06/08 04:53:56;;;;;;;14.57;9.97;;;12.30;99.90;;;;;;5079527;28;20036;-74
2023/06/08 04:56:24;;;;;;;16.00;9.93;;;12.50;99.90;;;;;;5067279;28;20036;-75
2023/06/08 04:58:50;;;;;;;15.80;9.65;;;12.60;99.90;;;;;;5078232;28;20031;-73
2023/06/08 05:01:16;;;;;;;17.55;9.73;;;12.80;99.90;;;;;;5071460;28;20024;-75
2023/06/08 05:03:42;;;;;;;16.63;10.10;;;13.00;99.90;;;;;;5078176;28;20075;-75
2023/06/08 05:06:08;;;;;;;19.38;10.80;;;13.10;99.90;;;;;;5084009;28;20042;-75
2023/06/08 05:08:34;;;;;;;17.85;10.50;;;13.30;99.90;;;;;;5081662;28;20055;-74
2023/06/08 05:11:00;;;;;;;17.23;10.88;;;13.30;99.90;;;;;;5087375;28;20166;-74
2023/06/08 05:13:25;;;;;;;17.58;10.52;;;13.50;99.90;;;;;;5090764;28;20055;-74
2023/06/08 05:15:51;;;;;;;16.00;11.02;;;13.70;99.90;;;;;;5088950;28;20381;-74
2023/06/08 05:18:17;;;;;;;16.10;10.55;;;13.90;99.90;;;;;;5091752;28;20044;-76
2023/06/08 05:20:42;;;;;;;15.13;10.75;;;14.00;99.90;;;;;;5103563;27;20025;-75
2023/06/08 05:23:08;;;;;;;17.70;11.27;;;14.10;99.90;;;;;;5083634;28;20546;-79
2023/06/08 05:25:36;;;;;;;17.35;11.02;;;13.90;99.90;;;;;;5088983;28;20032;-76
2023/06/08 05:28:05;;;;;;;17.73;10.75;;;14.00;99.90;;;;;;5091376;28;20032;-76
2023/06/08 05:30:31;;;;;;;15.45;10.48;;;14.00;99.90;;;;;;5091062;28;20031;-75
2023/06/08 05:32:57;;;;;;;17.65;10.82;;;14.10;99.90;;;;;;5089787;28;20038;-77
2023/06/08 05:35:22;;;;;;;16.90;11.15;;;14.20;99.90;;;;;;5091523;28;20085;-76
2023/06/08 05:37:48;;;;;;;17.50;11.63;;;14.50;99.90;;;;;;5089913;28;20039;-76
2023/06/08 05:40:14;;;;;;;18.73;11.70;;;14.50;99.90;;;;;;5089993;28;20693;-76
2023/06/08 05:42:40;;;;;;;19.00;11.98;;;14.60;99.90;;;;;;5091384;28;20036;-75
2023/06/08 05:45:06;;;;;;;20.25;11.90;;;14.60;99.90;;;;;;5086587;28;20035;-79
2023/06/08 05:47:32;;;;;;;17.58;11.20;;;14.80;99.90;;;;;;5084273;28;20050;-75
2023/06/08 05:49:57;;;;;;;18.30;12.15;;;15.10;99.90;;;;;;5088801;28;20114;-76
2023/06/08 05:52:23;;;;;;;17.45;11.85;;;15.30;99.90;;;;;;5100836;28;20130;-75
2023/06/08 05:54:50;;;;;;;18.38;12.13;;;15.30;99.90;;;;;;5092929;28;20035;-75
2023/06/08 05:57:16;;;;;;;20.90;12.25;;;15.40;99.90;;;;;;5089636;28;20040;-75
2023/06/08 05:59:41;;;;;;;18.23;11.90;;;15.50;99.90;;;;;;5076335;28;20115;-75
2023/06/08 06:02:07;;;;;;;19.95;13.02;;;15.70;99.90;;;;;;5070212;28;20063;-80
2023/06/08 06:04:34;;;;;;;22.55;12.85;;;15.90;99.90;;;;;;5070315;28;20036;-77
2023/06/08 06:07:00;;;;;;;18.17;11.30;;;16.10;99.90;;;;;;5070338;28;20031;-76
2023/06/08 06:09:25;;;;;;;20.58;13.55;;;16.30;99.90;;;;;;5077504;28;20364;-76
2023/06/08 06:11:51;;;;;;;20.13;13.43;;;16.30;99.90;;;;;;5090007;28;20024;-78
2023/06/08 06:14:17;;;;;;;17.73;12.65;;;16.30;99.90;;;;;;5108618;28;20032;-79
2023/06/08 06:16:43;;;;;;;17.98;12.73;;;16.40;99.90;;;;;;5090573;28;20491;-77
2023/06/08 06:19:08;;;;;;;17.73;12.98;;;16.50;99.90;;;;;;5090067;28;20431;-80
2023/06/08 06:21:34;;;;;;;20.67;13.60;;;16.60;99.90;;;;;;5089655;28;20024;-76
2023/06/08 06:24:00;;;;;;;20.25;13.68;;;16.80;99.90;;;;;;5088083;28;20479;-76
2023/06/08 06:26:25;;;;;;;20.10;13.43;;;17.00;99.90;;;;;;5099189;28;20050;-76
2023/06/08 06:28:51;;;;;;;20.58;14.02;;;17.30;99.90;;;;;;5110546;28;20043;-76
2023/06/08 06:31:16;;;;;;;22.50;14.73;;;17.50;99.90;;;;;;5109510;28;20104;-79
2023/06/08 06:33:42;;;;;;;22.48;14.95;;;17.80;99.90;;;;;;5088104;28;20411;-77
2023/06/08 06:36:08;;;;;;;21.50;15.13;;;18.00;99.90;;;;;;5069261;28;20033;-82
2023/06/08 06:38:33;;;;;;;19.90;13.82;;;18.20;99.90;;;;;;5069292;28;20233;-77
2023/06/08 06:40:59;;;;;;;24.15;14.23;;;18.40;99.90;;;;;;5084227;28;20024;-76
2023/06/08 06:43:25;;;;;;;24.95;14.98;;;18.40;99.90;;;;;;5083836;28;20380;-76
2023/06/08 06:45:51;;;;;;;21.58;14.45;;;18.60;99.90;;;;;;5088878;28;20055;-79
2023/06/08 06:48:21;;;;;;;23.20;15.00;;;18.80;99.90;;;;;;5085627;28;20556;-78
2023/06/08 06:50:47;;;;;;;21.83;15.50;;;19.10;99.90;;;;;;5079978;28;20041;-79
2023/06/08 06:53:13;;;;;;;21.77;14.50;;;19.30;99.90;;;;;;5069815;28;20029;-80
2023/06/08 06:55:42;;;;;;;22.85;15.70;;;19.40;99.90;;;;;;5069477;28;20047;-77
2023/06/08 06:58:08;;;;;;;20.45;14.70;;;19.70;99.90;;;;;;5070223;28;20169;-77
2023/06/08 07:00:37;;;;;;;18.90;13.65;;;20.00;99.90;;;;;;5080062;28;20574;-77
2023/06/08 07:03:07;;;;;;;21.27;15.05;;;20.20;99.90;;;;;;5088828;28;20032;-75
2023/06/08 07:05:36;;;;;;;22.02;14.93;;;20.40;99.90;;;;;;5088766;28;20035;-79
2023/06/08 07:08:02;;;;;;;25.70;14.73;;;20.50;99.90;;;;;;5089452;28;20036;-76
2023/06/08 07:10:29;;;;;;;21.55;14.48;;;20.70;99.90;;;;;;5080115;28;20032;-78
2023/06/08 07:12:56;;;;;;;18.52;13.68;;;20.90;99.90;;;;;;5076718;28;20677;-77
2023/06/08 07:15:22;;;;;;;18.95;13.35;;;21.10;99.90;;;;;;5086943;28;20032;-78
2023/06/08 07:17:48;;;;;;;18.75;12.98;;;21.20;99.90;;;;;;5080171;28;20440;-76
2023/06/08 07:20:14;;;;;;;18.10;13.23;;;21.40;99.90;;;;;;5071947;28;20039;-82
2023/06/08 07:22:40;;;;;;;19.02;13.23;;;21.60;99.90;;;;;;5089190;28;20024;-77
2023/06/08 07:25:06;;;;;;;20.73;13.00;;;21.70;99.90;;;;;;5089271;28;20024;-78
2023/06/08 07:27:32;;;;;;;16.60;11.52;;;21.90;99.90;;;;;;5083760;28;20310;-78
2023/06/08 07:29:57;;;;;;;16.58;12.23;;;21.90;99.90;;;;;;5085366;28;20027;-77
2023/06/08 07:32:24;;;;;;;18.42;12.80;;;22.10;99.90;;;;;;5087792;28;20110;-76
2023/06/08 07:34:50;;;;;;;17.38;12.52;;;22.10;99.90;;;;;;5087657;28;20081;-78
2023/06/08 07:37:15;;;;;;;16.92;12.23;;;22.10;99.90;;;;;;5073978;28;20133;-80
2023/06/08 07:39:41;;;;;;;16.10;12.23;;;22.30;99.90;;;;;;5068270;28;20111;-78
2023/06/08 07:42:07;;;;;;;16.50;12.60;;;22.30;99.90;;;;;;5068764;28;20028;-81
2023/06/08 07:44:33;;;;;;;19.42;13.05;;;22.40;99.90;;;;;;5069925;28;20029;-79
2023/06/08 07:47:00;;;;;;;16.40;12.02;;;22.50;99.90;;;;;;5091910;28;20055;-78
2023/06/08 07:49:28;;;;;;;16.95;11.70;;;22.50;99.90;;;;;;5090192;28;20070;-78
2023/06/08 07:51:54;;;;;;;14.85;11.43;;;22.70;99.90;;;;;;5087871;28;20050;-77
2023/06/08 07:54:19;;;;;;;13.52;10.52;;;22.80;99.90;;;;;;5086516;28;20400;-79
2023/06/08 07:56:49;;;;;;;14.35;10.02;;;22.90;99.90;;;;;;5087636;28;20086;-80
2023/06/08 07:59:15;;;;;;;13.85;10.15;;;23.10;99.90;;;;;;5088441;28;20028;-85
2023/06/08 08:01:42;;;;;;;17.13;11.50;;;22.80;99.90;;;;;;5088223;28;20050;-77
2023/06/08 08:04:08;;;;;;;18.90;10.85;;;22.80;99.90;;;;;;5094299;28;20043;-72
2023/06/08 08:06:34;;;;;;;17.65;10.82;;;22.80;99.90;;;;;;5106602;28;20032;-70
2023/06/08 08:09:00;;;;;;;14.13;10.93;;;22.80;99.90;;;;;;5109212;28;20024;-70
2023/06/08 08:11:26;;;;;;;14.27;10.05;;;22.90;99.90;;;;;;5108198;28;20019;-70
2023/06/08 08:13:52;;;;;;;18.48;10.73;;;23.10;99.90;;;;;;5094210;28;20140;-70
2023/06/08 08:16:18;;;;;;;14.05;10.20;;;23.30;99.90;;;;;;5091062;28;20435;-72
2023/06/08 08:18:44;;;;;;;13.68;10.07;;;23.30;99.90;;;;;;5088695;28;20606;-70
2023/06/08 08:21:09;;;;;;;18.05;10.38;;;23.60;99.90;;;;;;5083543;28;20039;-69
2023/06/08 08:23:36;;;;;;;12.43;9.75;;;23.70;99.90;;;;;;5084490;28;20103;-71
2023/06/08 08:26:02;;;;;;;15.32;10.15;;;23.80;99.90;;;;;;5086087;28;20459;-71
2023/06/08 08:28:28;;;;;;;16.13;10.77;;;24.00;99.90;;;;;;5076880;28;20025;-71
2023/06/08 08:30:53;;;;;;;13.73;10.07;;;24.00;99.90;;;;;;5086726;28;20039;-71
2023/06/08 08:33:19;;;;;;;13.25;9.68;;;24.00;99.90;;;;;;5087489;28;20032;-71
2023/06/08 08:35:45;;;;;;;13.63;9.48;;;24.10;98.90;;;;;;5086395;28;20036;-70
2023/06/08 08:38:10;;;;;;;12.50;9.05;;;24.20;98.90;;;;;;5088357;28;20111;-70
2023/06/08 08:40:37;;;;;;;11.48;8.60;;;24.30;98.20;;;;;;5087539;28;20020;-71
2023/06/08 08:43:14;;;;;;;11.50;8.70;;;24.50;97.70;;;;;;5088245;28;20052;-70
2023/06/08 08:45:42;;;;;;;14.45;9.50;;;24.70;96.50;;;;;;5087951;28;20036;-71
2023/06/08 08:48:12;;;;;;;15.73;10.10;;;24.70;96.00;;;;;;5089604;28;20065;-71
2023/06/08 08:50:40;;;;;;;14.10;10.38;;;24.60;95.40;;;;;;5091297;28;20024;-71
2023/06/08 08:53:06;;;;;;;12.65;8.90;;;24.70;99.10;;;;;;5076775;28;20052;-70
2023/06/08 08:55:33;;;;;;;12.38;9.02;;;25.00;96.00;;;;;;5091328;28;20036;-70
2023/06/08 08:58:03;;;;;;;12.55;9.13;;;25.10;95.50;;;;;;5092030;28;20032;-71
2023/06/08 09:00:31;;;;;;;11.40;8.85;;;25.00;93.40;;;;;;5091148;28;20380;-70
2023/06/08 09:02:56;;;;;;;13.82;9.30;;;25.10;93.20;;;;;;5086021;28;20056;-71
2023/06/08 09:05:22;;;;;;;12.57;8.10;;;25.10;93.20;;;;;;5091128;28;20592;-71
2023/06/08 09:07:48;;;;;;;13.88;8.15;;;25.10;92.40;;;;;;5091593;28;20032;-71
2023/06/08 09:10:19;;;;;;;11.70;8.05;;;25.20;89.80;;;;;;5091411;28;20031;-71
2023/06/08 09:12:46;;;;;;;10.20;7.97;;;25.50;90.70;;;;;;5085670;28;20036;-71
2023/06/08 09:15:17;;;;;;;10.45;8.50;;;25.60;91.00;;;;;;5085955;28;20084;-71
2023/06/08 09:17:44;;;;;;;13.93;8.85;;;25.90;92.00;;;;;;5086553;28;20068;-71
2023/06/08 09:20:12;;;;;;;11.45;8.45;;;26.20;90.40;;;;;;5084826;28;20151;-71
2023/06/08 09:22:41;;;;;;;10.70;8.48;;;26.00;90.70;;;;;;5088861;28;20605;-71
2023/06/08 09:25:07;;;;;;;10.95;7.65;;;25.90;92.10;;;;;;5091360;28;20020;-70
2023/06/08 09:27:33;;;;;;;9.88;8.00;;;25.80;87.10;;;;;;5087810;28;20568;-69
2023/06/08 09:30:02;;;;;;;23.63;8.05;;;25.60;90.10;;;;;;5085420;28;20130;-70
2023/06/08 09:32:37;;;;;;;13.07;8.48;;;25.90;91.90;;;;;;5088105;28;20053;-71
2023/06/08 09:35:03;;;;;;;11.13;8.50;;;26.30;90.60;;;;;;5090256;28;20024;-70
2023/06/08 09:37:33;;;;;;;9.75;7.40;;;26.40;89.30;;;;;;5089628;28;20036;-70
2023/06/08 09:40:00;;;;;;;10.95;8.13;;;26.40;84.70;;;;;;5075819;28;20039;-70
2023/06/08 09:42:42;;;;;;;9.95;7.47;;;26.60;85.20;;;;;;5087309;28;20021;-70
2023/06/08 09:45:14;;;;;;;9.52;7.20;;;26.70;83.90;;;;;;5090532;28;20040;-70
2023/06/08 09:47:42;;;;;;;9.05;6.95;;;26.80;81.30;;;;;;5072963;28;20037;-70
2023/06/08 09:50:09;;;;;;;11.38;7.18;;;26.60;82.10;;;;;;5070734;28;20028;-70
2023/06/08 09:52:36;;;;;;;10.23;8.00;;;27.00;79.20;;;;;;5102169;27;20416;-70
2023/06/08 09:55:03;;;;;;;9.93;7.65;;;27.00;77.50;;;;;;5086981;28;20443;-70
2023/06/08 09:57:35;;;;;;;12.93;7.85;;;27.10;79.20;;;;;;5089311;28;20063;-70
2023/06/08 10:00:17;;;;;;;13.75;7.88;;;27.30;81.00;;;;;;5070671;28;20036;-70
2023/06/08 10:02:51;;;;;;;11.45;7.75;;;27.70;80.80;;;;;;5104062;28;20021;-69
2023/06/08 10:05:17;;;;;;;9.18;7.18;;;27.90;72.90;;;;;;5070423;28;20039;-69
2023/06/08 10:07:47;;;;;;;11.32;8.30;;;27.70;70.70;;;;;;5073146;28;20036;-69
2023/06/08 10:10:22;;;;;;;10.52;7.68;;;27.30;69.90;;;;;;5072877;28;20028;-70
2023/06/08 10:12:48;;;;;;;10.10;7.85;;;27.20;72.10;;;;;;5089161;28;20585;-70
2023/06/08 10:15:14;;;;;;;11.50;7.65;;;27.10;76.00;;;;;;5090518;28;20067;-70
2023/06/08 10:17:42;;;;;;;10.43;7.78;;;26.90;68.70;;;;;;5088403;28;20094;-69
2023/06/08 10:20:12;;;;;;;18.20;9.15;;;26.80;69.80;;;;;;5084879;28;20115;-70
2023/06/08 10:22:39;;;;;;;10.35;8.60;;;26.80;71.90;;;;;;5086161;28;20068;-71
2023/06/08 10:25:06;;;;;;;9.93;7.72;;;26.90;73.30;;;;;;5090192;28;20071;-70
2023/06/08 10:27:35;;;;;;;11.38;7.82;;;27.10;72.10;;;;;;5089475;28;20036;-71
2023/06/08 10:30:04;;;;;;;12.20;8.02;;;27.30;68.40;;;;;;5090107;28;20127;-70
2023/06/08 10:32:34;;;;;;;9.93;7.55;;;27.50;69.60;;;;;;5089461;28;20082;-70
2023/06/08 10:35:04;;;;;;;9.85;7.85;;;27.60;70.20;;;;;;5090186;28;20020;-71
2023/06/08 10:37:31;;;;;;;;;;;27.90;72.20;;;;;;5089651;28;20373;-70
2023/06/08 10:39:58;;;;;;;9.38;7.18;;;28.10;64.90;;;;;;5090073;28;20522;-70
2023/06/08 10:42:24;;;;;;;9.23;7.53;;;28.00;64.50;;;;;;5089713;28;20056;-71
2023/06/08 10:44:57;;;;;;;10.85;8.15;;;27.90;68.70;;;;;;5081516;28;20054;-70
2023/06/08 10:47:24;;;;;;;10.75;7.63;;;27.90;67.10;;;;;;5086335;28;20075;-72
2023/06/08 10:50:10;;;;;;;10.30;7.80;;;28.30;70.90;;;;;;5083536;28;20480;-69
2023/06/08 10:52:45;;;;;;;11.80;7.70;;;28.40;64.80;;;;;;5075918;28;20059;-70
2023/06/08 10:55:16;;;;;;;9.32;7.53;;;27.70;64.30;;;;;;5095366;28;20039;-70
2023/06/08 10:58:05;;;;;;;11.65;7.38;;;27.50;65.60;;;;;;5098458;28;20167;-70
2023/06/08 11:00:32;;;;;;;10.00;7.45;;;28.00;62.20;;;;;;5109294;28;20081;-70
2023/06/08 11:03:04;;;;;;;11.55;7.43;;;28.60;61.10;;;;;;5076222;28;20078;-70
2023/06/08 11:05:35;;;;;;;16.08;7.47;;;28.20;59.20;;;;;;5078967;28;20025;-70
2023/06/08 11:08:01;;;;;;;10.07;7.30;;;27.60;61.00;;;;;;5071110;28;20530;-70
2023/06/08 11:10:28;;;;;;;8.85;7.20;;;27.50;64.70;;;;;;5085989;28;20731;-71
2023/06/08 11:12:54;;;;;;;10.85;7.28;;;27.50;62.20;;;;;;5079589;28;20087;-70
2023/06/08 11:15:21;;;;;;;9.70;7.63;;;27.20;66.10;;;;;;5083421;28;20107;-70
2023/06/08 11:17:56;;;;;;;10.70;7.75;;;27.00;64.20;;;;;;5080055;28;20043;-70
2023/06/08 11:20:26;;;;;;;10.57;7.45;;;26.90;64.70;;;;;;5082723;28;20036;-70
2023/06/08 11:22:52;;;;;;;9.93;7.35;;;26.70;63.50;;;;;;5070826;28;20032;-71
2023/06/08 11:25:22;;;;;;;10.85;7.18;;;27.10;65.00;;;;;;5064324;28;20475;-70
2023/06/08 11:27:55;;;;;;;10.55;7.57;;;27.80;60.40;;;;;;5072404;28;20052;-70
2023/06/08 11:30:31;;;;;;;10.52;7.35;;;28.20;59.90;;;;;;5064149;28;20107;-70
2023/06/08 11:32:58;;;;;;;12.75;7.43;;;28.60;61.80;;;;;;5079956;28;20028;-71
2023/06/08 11:35:24;;;;;;;10.75;7.43;;;29.00;59.70;;;;;;5083142;28;20026;-71
2023/06/08 11:37:56;;;;;;;11.20;7.63;;;29.10;59.50;;;;;;5070014;28;20035;-70
2023/06/08 11:40:22;;;;;;;15.18;8.10;;;29.40;56.80;;;;;;5061113;28;20028;-70
2023/06/08 11:42:49;;;;;;;9.77;7.38;;;29.20;57.90;;;;;;5069921;28;20055;-69
2023/06/08 11:45:15;;;;;;;9.55;7.18;;;29.00;56.20;;;;;;5081328;28;20059;-70
2023/06/08 11:47:42;;;;;;;9.43;7.47;;;28.90;58.60;;;;;;5090100;28;20093;-70
2023/06/08 11:50:09;;;;;;;10.18;7.15;;;28.30;57.50;;;;;;5088291;28;20055;-70
2023/06/08 11:52:39;;;;;;;9.90;7.90;;;28.40;60.50;;;;;;5076927;28;20036;-70
2023/06/08 11:55:12;;;;;;;9.95;7.80;;;28.40;59.00;;;;;;5088031;28;20388;-70
2023/06/08 11:57:45;;;;;;;11.70;7.35;;;28.50;57.50;;;;;;5086576;28;20031;-70
2023/06/08 12:00:12;;;;;;;12.13;7.65;;;28.30;58.80;;;;;;5068258;28;20435;-70
2023/06/08 12:02:38;;;;;;;10.80;7.55;;;28.20;58.60;;;;;;5067789;28;20060;-70
2023/06/08 12:05:06;;;;;;;10.00;7.43;;;27.70;58.30;;;;;;5072729;28;20031;-76
2023/06/08 12:07:35;;;;;;;11.85;8.02;;;27.10;60.10;;;;;;5075357;28;20154;-74
2023/06/08 12:10:01;;;;;;;14.30;7.82;;;26.60;60.90;;;;;;5079826;28;20032;-76
2023/06/08 12:12:30;;;;;;;9.32;7.07;;;26.40;59.80;;;;;;5079583;28;20044;-77
2023/06/08 12:14:56;;;;;;;10.82;7.70;;;26.30;61.20;;;;;;5074246;28;20035;-75
2023/06/08 12:17:27;;;;;;;9.15;7.05;;;26.30;61.00;;;;;;5075076;28;20039;-73
2023/06/08 12:19:53;;;;;;;;;;;26.00;62.10;;;;;;5082164;28;20032;-73
2023/06/08 12:22:19;;;;;;;11.52;7.38;;;25.70;63.20;;;;;;5084385;28;19919;-74
2023/06/08 12:24:45;;;;;;;10.82;7.03;;;25.40;62.40;;;;;;5083729;28;20054;-73
2023/06/08 12:27:11;;;;;;;10.38;7.78;;;25.30;63.20;;;;;;5079908;28;20171;-72
2023/06/08 12:29:38;;;;;;;12.52;7.60;;;25.10;66.60;;;;;;5082433;28;20103;-73
2023/06/08 12:32:05;;;;;;;12.05;7.82;;;25.00;67.90;;;;;;5081832;28;20031;-74
2023/06/08 12:34:33;;;;;;;12.68;7.70;;;24.80;67.00;;;;;;5082669;28;20074;-74
2023/06/08 12:36:59;;;;;;;15.77;8.15;;;24.80;66.70;;;;;;5080690;28;20032;-74